Time,TemperatureF,DewpointF,PressureIn,WindDirection,WindDirectionDegrees,WindSpeedMPH,WindSpeedGustMPH,Humidity,HourlyPrecipIn,Conditions,Clouds,dailyrainin,SoftwareType,DateUTC
2013-03-24 00:02:00,55.6,54.5,29.69,ESE,122,5.0,5.0,96,0.00,,,0.00,Wunderground v.1.15,2013-03-24 05:02:00,
2013-03-24 00:08:00,55.7,54.6,29.70,SE,128,6.0,6.0,96,0.00,,,0.00,Wunderground v.1.15,2013-03-24 05:08:00,
2013-03-24 00:17:00,55.6,54.5,29.69,SE,132,6.0,7.0,96,0.00,,,0.00,Wunderground v.1.15,2013-03-24 05:17:00,
2013-03-24 00:22:00,55.6,54.5,29.69,SE,130,6.0,6.0,96,0.00,,,0.00,Wunderground v.1.15,2013-03-24 05:22:00,
2013-03-24 00:32:00,55.5,54.4,29.70,SSE,151,7.0,7.0,96,0.00,,,0.00,Wunderground v.1.15,2013-03-24 05:32:00,
2013-03-24 00:37:00,55.6,54.5,29.70,SE,144,6.0,7.0,96,0.00,,,0.00,Wunderground v.1.15,2013-03-24 05:37:00,
2013-03-24 00:43:00,55.6,54.5,29.74,NW,313,4.0,17.0,96,0.00,,,0.00,Wunderground v.1.15,2013-03-24 05:43:00,
2013-03-24 00:52:00,56.1,55.3,29.78,NNW,345,17.0,18.0,97,0.00,,,0.00,Wunderground v.1.15,2013-03-24 05:52:00,
2013-03-24 00:57:00,55.9,54.8,29.78,NNW,331,18.0,18.0,96,0.00,,,0.00,Wunderground v.1.15,2013-03-24 05:57:00,
2013-03-24 01:07:00,56.1,54.4,29.80,NNW,329,16.0,19.0,94,0.00,,,0.00,Wunderground v.1.15,2013-03-24 06:07:00,
2013-03-24 01:12:00,56.0,54.0,29.80,NW,321,15.0,16.0,93,0.00,,,0.00,Wunderground v.1.15,2013-03-24 06:12:00,
2013-03-24 01:17:00,55.9,53.3,29.81,NNW,340,16.0,21.0,91,0.00,,,0.00,Wunderground v.1.15,2013-03-24 06:17:00,
2013-03-24 01:22:00,55.6,53.0,29.82,NNW,328,16.0,17.0,91,0.00,,,0.00,Wunderground v.1.15,2013-03-24 06:22:00,
2013-03-24 01:27:00,55.3,52.4,29.82,NNW,327,16.0,17.0,90,0.00,,,0.00,Wunderground v.1.15,2013-03-24 06:27:00,
2013-03-24 01:37:00,54.9,51.4,29.83,NW,319,18.0,23.0,88,0.00,,,0.00,Wunderground v.1.15,2013-03-24 06:37:00,
2013-03-24 01:42:00,54.8,51.0,29.84,NNW,341,18.0,20.0,87,0.00,,,0.00,Wunderground v.1.15,2013-03-24 06:42:00,
2013-03-24 01:47:00,54.6,50.8,29.85,North,359,19.0,23.0,87,0.00,,,0.00,Wunderground v.1.15,2013-03-24 06:47:00,
2013-03-24 01:52:00,54.3,50.5,29.85,NNW,335,20.0,20.0,87,0.00,,,0.00,Wunderground v.1.15,2013-03-24 06:52:00,
2013-03-24 01:57:00,53.9,50.1,29.85,NNW,331,19.0,20.0,87,0.00,,,0.00,Wunderground v.1.15,2013-03-24 06:57:00,
2013-03-24 02:02:00,53.5,49.7,29.86,NNW,336,20.0,27.0,87,0.00,,,0.00,Wunderground v.1.15,2013-03-24 07:02:00,
2013-03-24 02:12:00,53.0,49.5,29.87,North,349,21.0,27.0,88,0.00,,,0.00,Wunderground v.1.15,2013-03-24 07:12:00,
2013-03-24 02:17:00,52.5,49.0,29.87,NW,324,21.0,27.0,88,0.00,,,0.00,Wunderground v.1.15,2013-03-24 07:17:00,
2013-03-24 02:22:00,52.3,48.9,29.88,North,358,22.0,22.0,88,0.00,,,0.00,Wunderground v.1.15,2013-03-24 07:22:00,
2013-03-24 02:27:00,52.2,48.8,29.88,NW,326,21.0,22.0,88,0.00,,,0.00,Wunderground v.1.15,2013-03-24 07:27:00,
2013-03-24 02:32:00,52.2,48.1,29.88,NW,326,22.0,22.0,86,0.00,,,0.00,Wunderground v.1.15,2013-03-24 07:32:00,
2013-03-24 02:37:00,52.2,47.8,29.88,NW,322,22.0,23.0,85,0.00,,,0.00,Wunderground v.1.15,2013-03-24 07:37:00,
2013-03-24 02:42:00,51.9,47.2,29.89,NW,309,23.0,23.0,84,0.00,,,0.00,Wunderground v.1.15,2013-03-24 07:42:00,
2013-03-24 02:47:00,51.7,47.0,29.89,NNW,347,23.0,24.0,84,0.00,,,0.00,Wunderground v.1.15,2013-03-24 07:47:00,
2013-03-24 02:52:00,51.7,47.0,29.90,NW,317,22.0,22.0,84,0.00,,,0.00,Wunderground v.1.15,2013-03-24 07:52:00,
2013-03-24 02:57:00,51.6,46.9,29.91,NW,317,21.0,28.0,84,0.00,,,0.00,Wunderground v.1.15,2013-03-24 07:57:00,
2013-03-24 03:02:00,51.2,46.2,29.92,NW,318,23.0,24.0,83,0.00,,,0.00,Wunderground v.1.15,2013-03-24 08:02:00,
2013-03-24 03:12:00,50.9,46.2,29.93,NW,315,19.0,19.0,84,0.00,,,0.00,Wunderground v.1.15,2013-03-24 08:12:00,
2013-03-24 03:17:00,50.6,45.6,29.93,WNW,300,18.0,25.0,83,0.00,,,0.00,Wunderground v.1.15,2013-03-24 08:17:00,
2013-03-24 03:22:00,50.2,44.9,29.93,NW,310,21.0,23.0,82,0.00,,,0.00,Wunderground v.1.15,2013-03-24 08:22:00,
2013-03-24 03:27:00,50.0,45.0,29.93,NNW,341,21.0,23.0,83,0.00,,,0.00,Wunderground v.1.15,2013-03-24 08:27:00,
2013-03-24 03:32:00,49.6,44.6,29.93,NW,312,19.0,24.0,83,0.00,,,0.00,Wunderground v.1.15,2013-03-24 08:32:00,
2013-03-24 03:37:00,49.0,43.4,29.94,NW,312,21.0,24.0,81,0.00,,,0.00,Wunderground v.1.15,2013-03-24 08:37:00,
2013-03-24 03:42:00,48.6,43.4,29.94,WNW,289,21.0,21.0,82,0.00,,,0.00,Wunderground v.1.15,2013-03-24 08:42:00,
2013-03-24 03:47:00,48.1,42.5,29.95,NW,320,19.0,21.0,81,0.00,,,0.00,Wunderground v.1.15,2013-03-24 08:47:00,
2013-03-24 03:52:00,47.2,41.0,29.95,WNW,287,20.0,20.0,79,0.00,,,0.00,Wunderground v.1.15,2013-03-24 08:52:00,
2013-03-24 03:57:00,46.5,40.3,29.95,WNW,298,21.0,21.0,79,0.00,,,0.00,Wunderground v.1.15,2013-03-24 08:57:00,
2013-03-24 04:02:00,46.1,40.3,29.96,NW,310,20.0,22.0,80,0.00,,,0.00,Wunderground v.1.15,2013-03-24 09:02:00,
2013-03-24 04:07:00,46.1,40.3,29.95,NW,319,19.0,22.0,80,0.00,,,0.00,Wunderground v.1.15,2013-03-24 09:07:00,
2013-03-24 04:17:00,46.0,39.5,29.96,WNW,295,18.0,21.0,78,0.00,,,0.00,Wunderground v.1.15,2013-03-24 09:17:00,
2013-03-24 04:22:00,45.7,38.9,29.96,NW,310,21.0,21.0,77,0.00,,,0.00,Wunderground v.1.15,2013-03-24 09:22:00,
2013-03-24 04:27:00,45.5,39.0,29.96,NW,319,23.0,23.0,78,0.00,,,0.00,Wunderground v.1.15,2013-03-24 09:27:00,
2013-03-24 04:32:00,45.2,38.7,29.97,NW,323,21.0,21.0,78,0.00,,,0.00,Wunderground v.1.15,2013-03-24 09:32:00,
2013-03-24 04:37:00,44.9,38.1,29.97,WNW,288,18.0,21.0,77,0.00,,,0.00,Wunderground v.1.15,2013-03-24 09:37:00,
2013-03-24 04:42:00,44.4,37.6,29.97,NW,310,19.0,19.0,77,0.00,,,0.00,Wunderground v.1.15,2013-03-24 09:42:00,
2013-03-24 04:47:00,44.1,37.3,29.97,NW,316,21.0,25.0,77,0.00,,,0.00,Wunderground v.1.15,2013-03-24 09:47:00,
2013-03-24 04:52:00,43.9,37.2,29.97,NW,307,19.0,19.0,77,0.00,,,0.00,Wunderground v.1.15,2013-03-24 09:52:00,
2013-03-24 04:57:00,43.6,36.2,29.97,WNW,303,20.0,24.0,75,0.00,,,0.00,Wunderground v.1.15,2013-03-24 09:57:00,
2013-03-24 05:02:00,43.1,35.4,29.97,WNW,302,22.0,24.0,74,0.00,,,0.00,Wunderground v.1.15,2013-03-24 10:02:00,
2013-03-24 05:07:00,42.8,35.1,29.97,NW,306,24.0,27.0,74,0.00,,,0.00,Wunderground v.1.15,2013-03-24 10:07:00,
2013-03-24 05:17:00,42.4,35.0,29.97,NW,306,22.0,24.0,75,0.00,,,0.00,Wunderground v.1.15,2013-03-24 10:17:00,
2013-03-24 05:22:00,42.3,35.3,29.97,NW,311,20.0,23.0,76,0.00,,,0.00,Wunderground v.1.15,2013-03-24 10:22:00,
2013-03-24 05:27:00,42.2,34.8,29.97,NNW,329,21.0,23.0,75,0.00,,,0.00,Wunderground v.1.15,2013-03-24 10:27:00,
2013-03-24 05:32:00,42.1,34.7,29.96,NW,315,23.0,23.0,75,0.00,,,0.00,Wunderground v.1.15,2013-03-24 10:32:00,
2013-03-24 05:37:00,42.0,34.6,29.97,WNW,303,23.0,24.0,75,0.00,,,0.00,Wunderground v.1.15,2013-03-24 10:37:00,
2013-03-24 05:42:00,41.8,34.5,29.97,WNW,300,22.0,22.0,75,0.00,,,0.00,Wunderground v.1.15,2013-03-24 10:42:00,
2013-03-24 05:47:00,41.7,33.3,29.99,WNW,296,21.0,26.0,72,0.00,,,0.00,Wunderground v.1.15,2013-03-24 10:47:00,
2013-03-24 05:52:00,41.5,32.4,29.99,WNW,299,23.0,23.0,70,0.00,,,0.00,Wunderground v.1.15,2013-03-24 10:52:00,
2013-03-24 05:57:00,41.3,31.9,30.00,NW,310,23.0,23.0,69,0.00,,,0.00,Wunderground v.1.15,2013-03-24 10:57:00,
2013-03-24 06:02:00,41.2,30.7,30.01,WNW,294,24.0,27.0,66,0.00,,,0.00,Wunderground v.1.15,2013-03-24 11:02:00,
2013-03-24 06:07:00,40.8,28.8,30.01,WNW,303,26.0,27.0,62,0.00,,,0.00,Wunderground v.1.15,2013-03-24 11:07:00,
2013-03-24 06:12:00,40.2,28.6,30.01,NW,312,26.0,26.0,63,0.00,,,0.00,Wunderground v.1.15,2013-03-24 11:12:00,
2013-03-24 06:22:00,39.6,28.4,30.02,NW,319,26.0,26.0,64,0.00,,,0.00,Wunderground v.1.15,2013-03-24 11:22:00,
2013-03-24 06:27:00,39.4,28.2,30.02,NW,307,24.0,27.0,64,0.00,,,0.00,Wunderground v.1.15,2013-03-24 11:27:00,
2013-03-24 06:32:00,39.3,28.5,30.01,WNW,302,24.0,25.0,65,0.00,,,0.00,Wunderground v.1.15,2013-03-24 11:32:00,
2013-03-24 06:37:00,39.1,27.9,30.01,NW,310,24.0,25.0,64,0.00,,,0.00,Wunderground v.1.15,2013-03-24 11:37:00,
2013-03-24 06:42:00,39.1,27.2,30.02,WNW,300,27.0,27.0,62,0.00,,,0.00,Wunderground v.1.15,2013-03-24 11:42:00,
2013-03-24 06:53:00,38.6,26.3,30.03,NW,305,25.0,28.0,61,0.00,,,0.00,Wunderground v.1.15,2013-03-24 11:53:00,
2013-03-24 07:02:00,38.2,25.9,30.03,NW,317,26.0,26.0,61,0.00,,,0.00,Wunderground v.1.15,2013-03-24 12:02:00,
2013-03-24 07:07:00,38.0,25.7,30.04,NW,306,25.0,26.0,61,0.00,,,0.00,Wunderground v.1.15,2013-03-24 12:07:00,
2013-03-24 07:12:00,38.0,25.7,30.05,NW,322,24.0,24.0,61,0.00,,,0.00,Wunderground v.1.15,2013-03-24 12:12:00,
2013-03-24 07:17:00,37.9,26.0,30.05,WNW,300,23.0,24.0,62,0.00,,,0.00,Wunderground v.1.15,2013-03-24 12:17:00,
2013-03-24 07:27:00,37.7,26.2,30.06,WNW,298,21.0,23.0,63,0.00,,,0.00,Wunderground v.1.15,2013-03-24 12:27:00,
2013-03-24 07:32:00,37.5,26.4,30.07,WNW,300,19.0,19.0,64,0.00,,,0.00,Wunderground v.1.15,2013-03-24 12:32:00,
2013-03-24 07:37:00,37.5,26.8,30.07,WNW,296,17.0,19.0,65,0.00,,,0.00,Wunderground v.1.15,2013-03-24 12:37:00,
2013-03-24 07:42:00,37.5,26.8,30.07,NW,308,18.0,18.0,65,0.00,,,0.00,Wunderground v.1.15,2013-03-24 12:42:00,
2013-03-24 07:47:00,37.5,26.8,30.08,WNW,298,19.0,26.0,65,0.00,,,0.00,Wunderground v.1.15,2013-03-24 12:47:00,
2013-03-24 07:53:00,37.6,26.5,30.08,NW,307,20.0,26.0,64,0.00,,,0.00,Wunderground v.1.15,2013-03-24 12:53:00,
2013-03-24 08:02:00,37.5,26.4,30.09,NW,305,21.0,21.0,64,0.00,,,0.00,Wunderground v.1.15,2013-03-24 13:02:00,
2013-03-24 08:07:00,37.5,26.4,30.09,WNW,298,21.0,21.0,64,0.00,,,0.00,Wunderground v.1.15,2013-03-24 13:07:00,
2013-03-24 08:12:00,37.5,26.4,30.10,NW,309,20.0,21.0,64,0.00,,,0.00,Wunderground v.1.15,2013-03-24 13:12:00,
2013-03-24 08:17:00,37.5,26.4,30.10,NW,317,20.0,21.0,64,0.00,,,0.00,Wunderground v.1.15,2013-03-24 13:17:00,
2013-03-24 08:22:00,37.6,26.5,30.10,WNW,293,20.0,20.0,64,0.00,,,0.00,Wunderground v.1.15,2013-03-24 13:22:00,
2013-03-24 08:32:00,37.6,25.7,30.11,NW,317,21.0,21.0,62,0.00,,,0.00,Wunderground v.1.15,2013-03-24 13:32:00,
2013-03-24 08:37:00,37.7,26.6,30.12,WNW,294,22.0,22.0,64,0.00,,,0.00,Wunderground v.1.15,2013-03-24 13:37:00,
2013-03-24 08:42:00,37.8,26.3,30.13,NW,313,20.0,20.0,63,0.00,,,0.00,Wunderground v.1.15,2013-03-24 13:42:00,
2013-03-24 08:47:00,37.9,26.4,30.13,NW,314,21.0,21.0,63,0.00,,,0.00,Wunderground v.1.15,2013-03-24 13:47:00,
2013-03-24 08:53:00,38.1,26.2,30.13,NW,319,21.0,21.0,62,0.00,,,0.00,Wunderground v.1.15,2013-03-24 13:53:00,
2013-03-24 09:02:00,38.5,26.2,30.14,WNW,286,20.0,20.0,61,0.00,,,0.00,Wunderground v.1.15,2013-03-24 14:02:00,
2013-03-24 09:07:00,38.7,26.8,30.14,NW,313,20.0,23.0,62,0.00,,,0.00,Wunderground v.1.15,2013-03-24 14:07:00,
2013-03-24 09:12:00,38.9,26.2,30.15,WNW,297,19.0,20.0,60,0.00,,,0.00,Wunderground v.1.15,2013-03-24 14:12:00,
2013-03-24 09:17:00,39.1,26.8,30.15,WNW,299,19.0,20.0,61,0.00,,,0.00,Wunderground v.1.15,2013-03-24 14:17:00,
2013-03-24 09:22:00,39.4,26.7,30.15,NW,306,19.0,19.0,60,0.00,,,0.00,Wunderground v.1.15,2013-03-24 14:22:00,
2013-03-24 09:32:00,39.3,25.7,30.15,NW,313,21.0,22.0,58,0.00,,,0.00,Wunderground v.1.15,2013-03-24 14:32:00,
2013-03-24 09:37:00,39.4,26.2,30.15,NNW,331,23.0,23.0,59,0.00,,,0.00,Wunderground v.1.15,2013-03-24 14:37:00,
2013-03-24 09:42:00,39.5,25.9,30.15,NW,313,23.0,26.0,58,0.00,,,0.00,Wunderground v.1.15,2013-03-24 14:42:00,
2013-03-24 09:47:00,39.7,26.1,30.15,NW,309,23.0,26.0,58,0.00,,,0.00,Wunderground v.1.15,2013-03-24 14:47:00,
2013-03-24 09:53:00,40.0,26.0,30.15,NW,309,22.0,24.0,57,0.00,,,0.00,Wunderground v.1.15,2013-03-24 14:53:00,
2013-03-24 10:02:00,40.3,25.8,30.15,WNW,303,23.0,24.0,56,0.00,,,0.00,Wunderground v.1.15,2013-03-24 15:02:00,
2013-03-24 10:07:00,40.3,25.0,30.16,NNW,334,23.0,24.0,54,0.00,,,0.00,Wunderground v.1.15,2013-03-24 15:07:00,
2013-03-24 10:12:00,40.4,25.1,30.16,WNW,303,24.0,31.0,54,0.00,,,0.00,Wunderground v.1.15,2013-03-24 15:12:00,
2013-03-24 10:17:00,40.8,25.9,30.16,WNW,295,23.0,31.0,55,0.00,,,0.00,Wunderground v.1.15,2013-03-24 15:17:00,
2013-03-24 10:22:00,40.8,25.4,30.16,NW,307,23.0,26.0,54,0.00,,,0.00,Wunderground v.1.15,2013-03-24 15:22:00,
2013-03-24 10:27:00,40.8,25.0,30.16,NW,311,24.0,26.0,53,0.00,,,0.00,Wunderground v.1.15,2013-03-24 15:27:00,
2013-03-24 10:37:00,40.9,24.1,30.16,WNW,294,26.0,28.0,51,0.00,,,0.00,Wunderground v.1.15,2013-03-24 15:37:00,
2013-03-24 10:42:00,41.2,24.9,30.16,NW,310,25.0,25.0,52,0.00,,,0.00,Wunderground v.1.15,2013-03-24 15:42:00,
2013-03-24 10:47:00,41.2,24.4,30.16,NNW,330,24.0,29.0,51,0.00,,,0.00,Wunderground v.1.15,2013-03-24 15:47:00,
2013-03-24 10:52:00,41.3,24.0,30.16,NW,307,25.0,25.0,50,0.00,,,0.00,Wunderground v.1.15,2013-03-24 15:52:00,
2013-03-24 11:02:00,42.2,24.4,30.16,NW,307,22.0,25.0,49,0.00,,,0.00,Wunderground v.1.15,2013-03-24 16:02:00,
2013-03-24 11:07:00,42.5,24.7,30.16,NW,324,22.0,26.0,49,0.00,,,0.00,Wunderground v.1.15,2013-03-24 16:07:00,
2013-03-24 11:12:00,42.4,24.6,30.16,WNW,298,23.0,30.0,49,0.00,,,0.00,Wunderground v.1.15,2013-03-24 16:12:00,
2013-03-24 11:22:00,43.2,24.8,30.16,WNW,300,24.0,24.0,48,0.00,,,0.00,Wunderground v.1.15,2013-03-24 16:22:00,
2013-03-24 11:27:00,43.3,24.9,30.16,NW,317,23.0,26.0,48,0.00,,,0.00,Wunderground v.1.15,2013-03-24 16:27:00,
2013-03-24 11:32:00,43.2,24.8,30.16,NW,314,25.0,25.0,48,0.00,,,0.00,Wunderground v.1.15,2013-03-24 16:32:00,
2013-03-24 11:37:00,43.2,24.3,30.16,NW,319,25.0,25.0,47,0.00,,,0.00,Wunderground v.1.15,2013-03-24 16:37:00,
2013-03-24 11:42:00,43.3,24.9,30.16,NW,311,24.0,24.0,48,0.00,,,0.00,Wunderground v.1.15,2013-03-24 16:42:00,
2013-03-24 11:52:00,44.6,24.5,30.16,WNW,296,21.0,23.0,45,0.00,,,0.00,Wunderground v.1.15,2013-03-24 16:52:00,
2013-03-24 12:02:00,44.7,24.6,30.16,WNW,298,21.0,21.0,45,0.00,,,0.00,Wunderground v.1.15,2013-03-24 17:02:00,
2013-03-24 12:07:00,44.4,24.9,30.16,WNW,287,22.0,25.0,46,0.00,,,0.00,Wunderground v.1.15,2013-03-24 17:07:00,
2013-03-24 12:12:00,44.7,26.2,30.16,NNW,331,22.0,22.0,48,0.00,,,0.00,Wunderground v.1.15,2013-03-24 17:12:00,
2013-03-24 12:17:00,45.3,25.2,30.16,WNW,299,21.0,22.0,45,0.00,,,0.00,Wunderground v.1.15,2013-03-24 17:17:00,
2013-03-24 12:22:00,45.1,24.5,30.16,WNW,303,21.0,21.0,44,0.00,,,0.00,Wunderground v.1.15,2013-03-24 17:22:00,
2013-03-24 12:27:00,45.3,25.2,30.16,WNW,291,22.0,23.0,45,0.00,,,0.00,Wunderground v.1.15,2013-03-24 17:27:00,
2013-03-24 12:32:00,45.5,24.8,30.15,WNW,291,21.0,21.0,44,0.00,,,0.00,Wunderground v.1.15,2013-03-24 17:32:00,
2013-03-24 12:37:00,45.4,25.3,30.15,WNW,298,21.0,27.0,45,0.00,,,0.00,Wunderground v.1.15,2013-03-24 17:37:00,
2013-03-24 12:47:00,45.7,25.5,30.15,NW,319,20.0,21.0,45,0.00,,,0.00,Wunderground v.1.15,2013-03-24 17:47:00,
2013-03-24 12:53:00,46.3,24.4,30.15,NNW,341,20.0,25.0,42,0.00,,,0.00,Wunderground v.1.15,2013-03-24 17:53:00,
2013-03-24 13:02:00,47.3,25.3,30.15,NW,314,18.0,18.0,42,0.00,,,0.00,Wunderground v.1.15,2013-03-24 18:02:00,
2013-03-24 13:07:00,47.3,24.8,30.15,NW,326,18.0,22.0,41,0.00,,,0.00,Wunderground v.1.15,2013-03-24 18:07:00,
2013-03-24 13:17:00,47.3,25.3,30.14,NW,322,19.0,20.0,42,0.00,,,0.00,Wunderground v.1.15,2013-03-24 18:17:00,
2013-03-24 13:22:00,47.3,24.8,30.14,WNW,303,18.0,18.0,41,0.00,,,0.00,Wunderground v.1.15,2013-03-24 18:22:00,
2013-03-24 13:27:00,47.5,25.5,30.14,NW,306,19.0,23.0,42,0.00,,,0.00,Wunderground v.1.15,2013-03-24 18:27:00,
2013-03-24 13:32:00,47.8,26.4,30.13,NW,314,17.0,17.0,43,0.00,,,0.00,Wunderground v.1.15,2013-03-24 18:32:00,
2013-03-24 13:37:00,48.2,25.6,30.13,WNW,293,16.0,23.0,41,0.00,,,0.00,Wunderground v.1.15,2013-03-24 18:37:00,
2013-03-24 13:42:00,48.2,25.0,30.13,NNW,330,17.0,17.0,40,0.00,,,0.00,Wunderground v.1.15,2013-03-24 18:42:00,
2013-03-24 13:53:00,49.2,26.5,30.13,NW,326,17.0,17.0,41,0.00,,,0.00,Wunderground v.1.15,2013-03-24 18:53:00,
2013-03-24 14:02:00,49.1,25.2,30.12,NW,305,18.0,21.0,39,0.00,,,0.00,Wunderground v.1.15,2013-03-24 19:02:00,
2013-03-24 14:07:00,48.9,25.0,30.12,NW,326,18.0,21.0,39,0.00,,,0.00,Wunderground v.1.15,2013-03-24 19:07:00,
2013-03-24 14:12:00,48.9,25.6,30.11,NNW,329,17.0,17.0,40,0.00,,,0.00,Wunderground v.1.15,2013-03-24 19:12:00,
2013-03-24 14:22:00,49.7,26.3,30.11,WNW,291,18.0,21.0,40,0.00,,,0.00,Wunderground v.1.15,2013-03-24 19:22:00,
2013-03-24 14:27:00,49.7,24.5,30.11,NNW,330,19.0,21.0,37,0.00,,,0.00,Wunderground v.1.15,2013-03-24 19:27:00,
2013-03-24 14:32:00,49.8,24.5,30.11,WNW,288,20.0,20.0,37,0.00,,,0.00,Wunderground v.1.15,2013-03-24 19:32:00,
2013-03-24 14:37:00,49.9,24.0,30.11,WNW,302,19.0,20.0,36,0.00,,,0.00,Wunderground v.1.15,2013-03-24 19:37:00,
2013-03-24 14:42:00,49.7,24.5,30.11,NW,308,18.0,18.0,37,0.00,,,0.00,Wunderground v.1.15,2013-03-24 19:42:00,
2013-03-24 14:47:00,50.0,25.4,30.10,NW,318,19.0,19.0,38,0.00,,,0.00,Wunderground v.1.15,2013-03-24 19:47:00,
2013-03-24 14:52:00,50.3,25.0,30.10,WNW,300,18.0,19.0,37,0.00,,,0.00,Wunderground v.1.15,2013-03-24 19:52:00,
2013-03-24 15:02:00,50.3,25.6,30.09,NW,312,18.0,18.0,38,0.00,,,0.00,Wunderground v.1.15,2013-03-24 20:02:00,
2013-03-24 15:07:00,50.9,24.9,30.09,NW,317,17.0,18.0,36,0.00,,,0.00,Wunderground v.1.15,2013-03-24 20:07:00,
2013-03-24 15:12:00,50.8,24.8,30.09,WNW,296,17.0,17.0,36,0.00,,,0.00,Wunderground v.1.15,2013-03-24 20:12:00,
2013-03-24 15:17:00,50.9,24.2,30.09,NW,305,16.0,17.0,35,0.00,,,0.00,Wunderground v.1.15,2013-03-24 20:17:00,
2013-03-24 15:27:00,51.1,25.7,30.08,NW,321,19.0,21.0,37,0.00,,,0.00,Wunderground v.1.15,2013-03-24 20:27:00,
2013-03-24 15:32:00,51.1,23.7,30.08,NNW,328,19.0,23.0,34,0.00,,,0.00,Wunderground v.1.15,2013-03-24 20:32:00,
2013-03-24 15:37:00,51.4,24.6,30.08,WNW,296,19.0,23.0,35,0.00,,,0.00,Wunderground v.1.15,2013-03-24 20:37:00,
2013-03-24 15:42:00,51.3,25.2,30.08,NW,320,17.0,17.0,36,0.00,,,0.00,Wunderground v.1.15,2013-03-24 20:42:00,
2013-03-24 15:47:00,51.6,24.8,30.08,NW,314,18.0,22.0,35,0.00,,,0.00,Wunderground v.1.15,2013-03-24 20:47:00,
2013-03-24 15:52:00,51.6,24.8,30.08,NW,319,19.0,20.0,35,0.00,,,0.00,Wunderground v.1.15,2013-03-24 20:52:00,
2013-03-24 16:02:00,51.4,24.6,30.07,NNW,343,19.0,19.0,35,0.00,,,0.00,Wunderground v.1.15,2013-03-24 21:02:00,
2013-03-24 16:12:00,51.9,25.1,30.07,WNW,289,17.0,17.0,35,0.00,,,0.00,Wunderground v.1.15,2013-03-24 21:12:00,
2013-03-24 16:17:00,52.0,24.5,30.06,NW,314,18.0,18.0,34,0.00,,,0.00,Wunderground v.1.15,2013-03-24 21:17:00,
2013-03-24 16:22:00,52.2,24.6,30.06,NW,313,17.0,18.0,34,0.00,,,0.00,Wunderground v.1.15,2013-03-24 21:22:00,
2013-03-24 16:27:00,52.0,24.5,30.06,WNW,298,16.0,18.0,34,0.00,,,0.00,Wunderground v.1.15,2013-03-24 21:27:00,
2013-03-24 16:32:00,52.2,24.6,30.06,NW,315,17.0,17.0,34,0.00,,,0.00,Wunderground v.1.15,2013-03-24 21:32:00,
2013-03-24 16:42:00,52.4,22.6,30.05,WNW,298,17.0,22.0,31,0.00,,,0.00,Wunderground v.1.15,2013-03-24 21:42:00,
2013-03-24 16:47:00,52.8,24.5,30.05,NNW,336,18.0,22.0,33,0.00,,,0.00,Wunderground v.1.15,2013-03-24 21:47:00,
2013-03-24 16:52:00,52.6,24.3,30.06,NW,326,17.0,18.0,33,0.00,,,0.00,Wunderground v.1.15,2013-03-24 21:52:00,
2013-03-24 17:02:00,52.5,23.5,30.06,NW,304,15.0,17.0,32,0.00,,,0.00,Wunderground v.1.15,2013-03-24 22:02:00,
2013-03-24 17:07:00,52.4,22.6,30.06,WNW,295,17.0,17.0,31,0.00,,,0.00,Wunderground v.1.15,2013-03-24 22:07:00,
2013-03-24 17:12:00,52.6,22.8,30.06,NW,305,18.0,18.0,31,0.00,,,0.00,Wunderground v.1.15,2013-03-24 22:12:00,
2013-03-24 17:17:00,52.5,23.5,30.05,NW,322,17.0,18.0,32,0.00,,,0.00,Wunderground v.1.15,2013-03-24 22:17:00,
2013-03-24 17:22:00,52.6,22.8,30.05,NW,319,17.0,17.0,31,0.00,,,0.00,Wunderground v.1.15,2013-03-24 22:22:00,
2013-03-24 17:27:00,52.7,23.6,30.05,NW,317,17.0,17.0,32,0.00,,,0.00,Wunderground v.1.15,2013-03-24 22:27:00,
2013-03-24 17:37:00,53.3,23.4,30.05,NW,316,13.0,16.0,31,0.00,,,0.00,Wunderground v.1.15,2013-03-24 22:37:00,
2013-03-24 17:42:00,53.1,23.2,30.05,NW,320,15.0,15.0,31,0.00,,,0.00,Wunderground v.1.15,2013-03-24 22:42:00,
2013-03-24 17:47:00,52.6,22.8,30.05,NW,322,15.0,15.0,31,0.00,,,0.00,Wunderground v.1.15,2013-03-24 22:47:00,
2013-03-24 17:52:00,52.8,23.7,30.05,NW,319,14.0,14.0,32,0.00,,,0.00,Wunderground v.1.15,2013-03-24 22:52:00,
2013-03-24 18:02:00,52.5,22.7,30.05,NW,312,16.0,16.0,31,0.00,,,0.00,Wunderground v.1.15,2013-03-24 23:02:00,
2013-03-24 18:07:00,53.0,25.3,30.05,North,9,14.0,16.0,34,0.00,,,0.00,Wunderground v.1.15,2013-03-24 23:07:00,
2013-03-24 18:12:00,52.9,23.0,30.05,NNW,327,13.0,14.0,31,0.00,,,0.00,Wunderground v.1.15,2013-03-24 23:12:00,
2013-03-24 18:17:00,52.8,23.0,30.05,WNW,303,14.0,18.0,31,0.00,,,0.00,Wunderground v.1.15,2013-03-24 23:17:00,
2013-03-24 18:22:00,52.6,22.8,30.05,NW,314,15.0,15.0,31,0.00,,,0.00,Wunderground v.1.15,2013-03-24 23:22:00,
2013-03-24 18:27:00,52.6,22.0,30.05,WNW,294,16.0,16.0,30,0.00,,,0.00,Wunderground v.1.15,2013-03-24 23:27:00,
2013-03-24 18:32:00,52.6,22.8,30.05,WNW,300,14.0,17.0,31,0.00,,,0.00,Wunderground v.1.15,2013-03-24 23:32:00,
2013-03-24 18:42:00,52.4,23.4,30.05,NW,324,14.0,15.0,32,0.00,,,0.00,Wunderground v.1.15,2013-03-24 23:42:00,
2013-03-24 18:47:00,52.3,22.5,30.05,NW,322,13.0,15.0,31,0.00,,,0.00,Wunderground v.1.15,2013-03-24 23:47:00,
2013-03-24 18:52:00,52.3,23.3,30.05,NW,321,12.0,13.0,32,0.00,,,0.00,Wunderground v.1.15,2013-03-24 23:52:00,
2013-03-24 19:02:00,51.8,22.8,30.06,NNW,336,13.0,14.0,32,0.00,,,0.00,Wunderground v.1.15,2013-03-25 00:02:00,
2013-03-24 19:12:00,51.5,22.6,30.06,NW,314,12.0,12.0,32,0.00,,,0.00,Wunderground v.1.15,2013-03-25 00:12:00,
2013-03-24 19:17:00,51.3,22.4,30.06,NW,324,13.0,13.0,32,0.00,,,0.00,Wunderground v.1.15,2013-03-25 00:17:00,
2013-03-24 19:22:00,51.2,23.8,30.06,NW,319,13.0,13.0,34,0.00,,,0.00,Wunderground v.1.15,2013-03-25 00:22:00,
2013-03-24 19:27:00,51.0,23.6,30.06,NW,324,11.0,13.0,34,0.00,,,0.00,Wunderground v.1.15,2013-03-25 00:27:00,
2013-03-24 19:32:00,50.6,23.2,30.07,NNW,340,10.0,12.0,34,0.00,,,0.00,Wunderground v.1.15,2013-03-25 00:32:00,
2013-03-24 19:42:00,49.8,22.5,30.07,NNW,333,9.0,9.0,34,0.00,,,0.00,Wunderground v.1.15,2013-03-25 00:42:00,
2013-03-24 19:47:00,49.4,22.9,30.07,NNW,343,10.0,10.0,35,0.00,,,0.00,Wunderground v.1.15,2013-03-25 00:47:00,
2013-03-24 19:57:00,48.4,23.3,30.07,North,352,7.0,23.0,37,0.00,,,0.00,Wunderground v.1.15,2013-03-25 00:57:00,
2013-03-24 20:02:00,48.1,23.7,30.08,North,352,7.0,23.0,38,0.00,,,0.00,Wunderground v.1.15,2013-03-25 01:02:00,
2013-03-24 20:07:00,47.9,22.8,30.08,North,1,7.0,23.0,37,0.00,,,0.00,Wunderground v.1.15,2013-03-25 01:07:00,
2013-03-24 20:17:00,47.3,22.9,30.08,NNW,343,6.0,23.0,38,0.00,,,0.00,Wunderground v.1.15,2013-03-25 01:17:00,
2013-03-24 20:22:00,46.9,23.2,30.08,NNW,329,6.0,6.0,39,0.00,,,0.00,Wunderground v.1.15,2013-03-25 01:22:00,
2013-03-24 20:27:00,46.6,22.9,30.08,NNW,343,6.0,23.0,39,0.00,,,0.00,Wunderground v.1.15,2013-03-25 01:27:00,
2013-03-24 20:32:00,46.3,23.3,30.09,North,352,5.0,5.0,40,0.00,,,0.00,Wunderground v.1.15,2013-03-25 01:32:00,
2013-03-24 20:37:00,46.0,23.6,30.09,NNW,331,5.0,23.0,41,0.00,,,0.00,Wunderground v.1.15,2013-03-25 01:37:00,
2013-03-24 20:42:00,45.5,23.7,30.09,NNW,327,5.0,23.0,42,0.00,,,0.00,Wunderground v.1.15,2013-03-25 01:42:00,
2013-03-24 20:47:00,45.3,23.5,30.10,NNW,335,5.0,23.0,42,0.00,,,0.00,Wunderground v.1.15,2013-03-25 01:47:00,
2013-03-24 20:52:00,45.1,23.3,30.10,NNW,341,5.0,5.0,42,0.00,,,0.00,Wunderground v.1.15,2013-03-25 01:52:00,
2013-03-24 20:57:00,44.9,23.7,30.10,NNW,327,5.0,23.0,43,0.00,,,0.00,Wunderground v.1.15,2013-03-25 01:57:00,
2013-03-24 21:02:00,44.6,23.5,30.10,NNW,340,5.0,23.0,43,0.00,,,0.00,Wunderground v.1.15,2013-03-25 02:02:00,
2013-03-24 21:07:00,44.6,24.0,30.11,NW,312,5.0,23.0,44,0.00,,,0.00,Wunderground v.1.15,2013-03-25 02:07:00,
2013-03-24 21:17:00,44.3,23.7,30.12,NNW,338,4.0,23.0,44,0.00,,,0.00,Wunderground v.1.15,2013-03-25 02:17:00,
2013-03-24 21:22:00,44.3,23.7,30.12,NNW,327,5.0,23.0,44,0.00,,,0.00,Wunderground v.1.15,2013-03-25 02:22:00,
2013-03-24 21:27:00,44.1,24.1,30.12,North,349,5.0,23.0,45,0.00,,,0.00,Wunderground v.1.15,2013-03-25 02:27:00,
2013-03-24 21:32:00,43.9,24.4,30.12,NNW,334,6.0,23.0,46,0.00,,,0.00,Wunderground v.1.15,2013-03-25 02:32:00,
2013-03-24 21:37:00,43.6,24.7,30.12,NW,326,6.0,23.0,47,0.00,,,0.00,Wunderground v.1.15,2013-03-25 02:37:00,
2013-03-24 21:42:00,43.4,24.5,30.13,NNW,334,6.0,6.0,47,0.00,,,0.00,Wunderground v.1.15,2013-03-25 02:42:00,
2013-03-24 21:52:00,42.8,24.4,30.13,NNW,334,5.0,23.0,48,0.00,,,0.00,Wunderground v.1.15,2013-03-25 02:52:00,
2013-03-24 21:57:00,42.7,24.8,30.14,NNW,335,5.0,23.0,49,0.00,,,0.00,Wunderground v.1.15,2013-03-25 02:57:00,
2013-03-24 22:02:00,42.7,24.4,30.14,NNW,333,5.0,23.0,48,0.00,,,0.00,Wunderground v.1.15,2013-03-25 03:02:00,
2013-03-24 22:07:00,42.9,24.5,30.14,NNW,330,5.0,23.0,48,0.00,,,0.00,Wunderground v.1.15,2013-03-25 03:07:00,
2013-03-24 22:12:00,43.2,24.3,30.14,NNW,343,6.0,6.0,47,0.00,,,0.00,Wunderground v.1.15,2013-03-25 03:12:00,
2013-03-24 22:22:00,43.4,24.5,30.14,NNW,348,6.0,6.0,47,0.00,,,0.00,Wunderground v.1.15,2013-03-25 03:22:00,
2013-03-24 22:27:00,43.3,24.4,30.15,NNW,338,5.0,23.0,47,0.00,,,0.00,Wunderground v.1.15,2013-03-25 03:27:00,
2013-03-24 22:32:00,43.3,24.4,30.15,NNW,341,5.0,23.0,47,0.00,,,0.00,Wunderground v.1.15,2013-03-25 03:32:00,
2013-03-24 22:37:00,43.1,24.2,30.15,NNW,343,5.0,23.0,47,0.00,,,0.00,Wunderground v.1.15,2013-03-25 03:37:00,
2013-03-24 22:42:00,42.9,24.5,30.15,NNW,338,5.0,23.0,48,0.00,,,0.00,Wunderground v.1.15,2013-03-25 03:42:00,
2013-03-24 22:47:00,42.7,24.4,30.15,NNW,343,5.0,23.0,48,0.00,,,0.00,Wunderground v.1.15,2013-03-25 03:47:00,
2013-03-24 22:52:00,42.3,24.5,30.16,NNW,331,5.0,23.0,49,0.00,,,0.00,Wunderground v.1.15,2013-03-25 03:52:00,
2013-03-24 22:57:00,41.8,24.5,30.16,NW,319,5.0,23.0,50,0.00,,,0.00,Wunderground v.1.15,2013-03-25 03:57:00,
2013-03-24 23:02:00,41.6,24.3,30.16,NW,317,4.0,23.0,50,0.00,,,0.00,Wunderground v.1.15,2013-03-25 04:02:00,
2013-03-24 23:07:00,41.7,24.4,30.16,NW,317,5.0,23.0,50,0.00,,,0.00,Wunderground v.1.15,2013-03-25 04:07:00,
2013-03-24 23:12:00,41.7,24.4,30.16,NNW,327,4.0,23.0,50,0.00,,,0.00,Wunderground v.1.15,2013-03-25 04:12:00,
2013-03-24 23:17:00,41.7,23.9,30.16,NNW,338,4.0,23.0,49,0.00,,,0.00,Wunderground v.1.15,2013-03-25 04:17:00,
2013-03-24 23:27:00,41.3,24.0,30.17,NNW,338,4.0,23.0,50,0.00,,,0.00,Wunderground v.1.15,2013-03-25 04:27:00,
2013-03-24 23:32:00,41.2,23.9,30.17,NNW,338,4.0,23.0,50,0.00,,,0.00,Wunderground v.1.15,2013-03-25 04:32:00,
2013-03-24 23:37:00,41.1,24.3,30.17,NNW,331,4.0,23.0,51,0.00,,,0.00,Wunderground v.1.15,2013-03-25 04:37:00,
2013-03-24 23:42:00,41.0,24.2,30.17,NNW,340,3.0,23.0,51,0.00,,,0.00,Wunderground v.1.15,2013-03-25 04:42:00,
2013-03-24 23:47:00,40.9,24.1,30.17,NNW,336,3.0,23.0,51,0.00,,,0.00,Wunderground v.1.15,2013-03-25 04:47:00,
2013-03-24 23:52:00,41.0,23.8,30.17,NNW,340,3.0,3.0,50,0.00,,,0.00,Wunderground v.1.15,2013-03-25 04:52:00,